首页
METAR-TAF:

METAR-TAF

机场 :

雷克雅維克, 冰岛

纬度: 64-08N, 经度: 021-54W, 海拔: 54米

当前天气观测

该预报发布于13分钟前的23:00 UTC
静风
温度 -6°C
湿度 86%
气压 1003 hPa
能见度10公里或以上
少量云层高于4900英尺
散云层高于14000英尺
多云层高于16000英尺

METAR: BIRK 232300Z 00000KT 9999 FEW049 SCT140 BKN160 M06/M08 Q1003

时间: 23:13 (23:13 UTC)

预报

该预报发布于3小时和21分钟前的19:52 UTC
预报有效从23日的 21点(UTC)到 24日的 21点(UTC)
风速8节,风向
能见度10公里或以上
散云层高于3500英尺
成为
从 24日的 03点(UTC)到 24日的 06点(UTC)
散云层高于1800英尺
多云层高于3000英尺
阴天层高于5000英尺
几率 40% :
短暂存在
从 24日的 07点(UTC)到 24日的 10点(UTC)
能見度: 3500
多云层高于1200英尺
阴天层高于2000英尺
成为
从 24日的 10点(UTC)到 24日的 12点(UTC)
风速20节,风向,有时为30节阵风
能見度: 2500
多云层高于1000英尺
阴天层高于1500英尺
成为
从 24日的 14点(UTC)到 24日的 16点(UTC)
风速12节,风向
能見度: 5000
多云层高于1500英尺
小阵雨, 雪

TAF: BIRK 231952Z 2321/2421 09008KT 9999 SCT035 TX01/2416Z TNM05/2400Z BECMG 2403/2406 SCT018 BKN030 OVC050 PROB40 TEMPO 2407/2410 3500 SN BKN012 OVC020 BECMG 2410/2412 09020G30KT 2500 SN BKN010 OVC015 BECMG 2414/2416 10012KT 5000 -SHRASN BKN015

超过4000个机场的气象观测和天气预报(METAR&TAF报告)。

可查询的气象台以黄色和红色小点在地图上表示。

将鼠标移到小点上方,可查看气象台名称。

然后点击查看天气观测和预报。

如需切换地图:点击带黑十字的绿色按钮放大地图;点击带横线的绿色按钮缩小地图;或者点击绿色箭头查看邻近地区的地图。


METAR-TAF: